Time;durP1;ratioP1;P1;durP2;ratioP2;P2;SDS_P1;SDS_P2;PMS_P1;PMS_P2;Temp;Humidity;BMP_temperature;BMP_pressure;BME280_temperature;BME280_humidity;BME280_pressure;Samples;Min_cycle;Max_cycle;Signal;HPM_P1;HPM_P2
2022/01/23 00:00:15;;;;;;;7.20;6.50;;;5.50;99.90;;;;;;5057479;27;90667;-34
2022/01/23 00:02:41;;;;;;;7.53;5.70;;;5.50;99.90;;;;;;5058122;27;89872;-33
2022/01/23 00:05:08;;;;;;;10.88;6.65;;;5.50;99.90;;;;;;5056964;27;88716;-33
2022/01/23 00:07:34;;;;;;;11.38;6.47;;;5.50;99.90;;;;;;5058048;27;87887;-31
2022/01/23 00:10:01;;;;;;;9.63;6.63;;;5.50;99.90;;;;;;5057056;27;90591;-30
2022/01/23 00:12:30;;;;;;;8.45;6.28;;;5.50;99.90;;;;;;5057732;27;89754;-32
2022/01/23 00:17:40;;;;;;;8.60;6.35;;;5.50;99.90;;;;;;5057768;27;87895;-29
2022/01/23 00:20:09;;;;;;;13.95;6.43;;;5.50;99.90;;;;;;5057253;27;90771;-31
2022/01/23 00:22:42;;;;;;;;;;;5.50;99.90;;;;;;5057534;27;90516;-31
2022/01/23 00:30:40;;;;;;;10.25;6.28;;;5.50;99.90;;;;;;5057338;27;90290;-31
2022/01/23 00:33:07;;;;;;;7.80;6.97;;;5.50;99.90;;;;;;5057173;27;88340;-30
2022/01/23 00:35:34;;;;;;;9.70;6.20;;;5.50;99.90;;;;;;5056803;27;88301;-31
2022/01/23 00:38:01;;;;;;;8.25;6.13;;;5.50;99.90;;;;;;5057544;27;87460;-31
2022/01/23 00:40:29;;;;;;;13.93;6.82;;;5.50;99.90;;;;;;5056959;27;92261;-34
2022/01/23 00:42:56;;;;;;;12.07;7.50;;;5.50;99.90;;;;;;5057023;27;88548;-33
2022/01/23 00:47:49;;;;;;;11.43;5.90;;;5.50;99.90;;;;;;5056473;27;88416;-31
2022/01/23 00:50:15;;;;;;;20.40;7.45;;;5.50;99.90;;;;;;5056628;27;89269;-31
2022/01/23 00:52:41;;;;;;;18.38;6.78;;;5.50;99.90;;;;;;5057062;27;89639;-30
2022/01/23 00:55:06;;;;;;;11.73;7.13;;;5.50;99.90;;;;;;5056935;27;89607;-32
2022/01/23 00:57:33;;;;;;;13.73;6.35;;;5.50;99.90;;;;;;5057094;27;87446;-31
2022/01/23 01:00:00;;;;;;;9.57;6.88;;;5.50;99.90;;;;;;5056531;27;90399;-34
2022/01/23 01:02:27;;;;;;;9.60;7.78;;;5.50;99.90;;;;;;5056215;27;90011;-31
2022/01/23 01:04:52;;;;;;;16.42;6.75;;;5.50;99.90;;;;;;5055378;27;89696;-33
2022/01/23 01:07:18;;;;;;;15.77;7.85;;;5.50;99.90;;;;;;5055583;27;87703;-31
2022/01/23 01:09:49;;;;;;;11.85;7.50;;;5.50;99.90;;;;;;5056633;27;90275;-29
2022/01/23 01:12:19;;;;;;;8.95;6.25;;;5.50;99.90;;;;;;5056147;27;90151;-29
2022/01/23 01:17:38;;;;;;;12.13;6.45;;;5.50;99.90;;;;;;5056844;27;88142;-30
2022/01/23 01:33:49;;;;;;;10.00;5.65;;;5.40;99.90;;;;;;5056397;27;89613;-31
2022/01/23 01:36:26;;;;;;;12.50;7.20;;;5.40;99.90;;;;;;5056076;27;88259;-33
2022/01/23 01:38:53;;;;;;;11.37;6.40;;;5.40;99.90;;;;;;5055969;27;88186;-30
2022/01/23 01:41:19;;;;;;;11.63;7.05;;;5.40;99.90;;;;;;5055822;27;90225;-30
2022/01/23 01:43:46;;;;;;;10.60;6.95;;;5.40;99.90;;;;;;5056219;27;89719;-32
2022/01/23 01:46:12;;;;;;;13.35;6.97;;;5.40;99.90;;;;;;5053289;27;89343;-31
2022/01/23 01:48:38;;;;;;;18.05;7.82;;;5.40;99.90;;;;;;5056399;27;87524;-30
2022/01/23 01:51:12;;;;;;;11.52;7.55;;;5.40;99.90;;;;;;5055684;27;89972;-32
2022/01/23 01:53:38;;;;;;;10.73;7.18;;;5.40;99.90;;;;;;5056250;27;89415;-31
2022/01/23 01:56:06;;;;;;;18.80;8.00;;;5.40;99.90;;;;;;5055787;27;89200;-31
2022/01/23 02:01:00;;;;;;;8.90;6.60;;;5.40;99.90;;;;;;5055405;27;89120;-32
2022/01/23 02:08:18;;;;;;;13.15;7.53;;;5.40;99.90;;;;;;5055050;27;90599;-31
2022/01/23 02:08:56;;;;;;;12.98;8.63;;;5.40;99.90;;;;;;5056161;27;88655;-30
2022/01/23 02:11:39;;;;;;;9.55;8.25;;;5.40;99.90;;;;;;5055480;27;90302;-31
2022/01/23 02:14:26;;;;;;;14.10;8.77;;;5.40;99.90;;;;;;5055802;27;90440;-34
2022/01/23 02:17:16;;;;;;;7.97;7.22;;;5.40;99.90;;;;;;5055667;27;89464;-33
2022/01/23 02:22:55;;;;;;;12.02;8.85;;;5.40;99.90;;;;;;5055646;27;90151;-32
2022/01/23 02:55:16;;;;;;;9.32;8.20;;;5.40;99.90;;;;;;5054837;27;90349;-29
2022/01/23 03:00:15;;;;;;;;;;;5.40;99.90;;;;;;5054788;27;90491;-31
2022/01/23 03:02:47;;;;;;;11.63;7.32;;;5.40;99.90;;;;;;5038065;27;87924;-33
2022/01/23 03:05:22;;;;;;;9.80;8.10;;;5.40;99.90;;;;;;5054402;27;90629;-32
2022/01/23 03:07:56;;;;;;;10.05;7.35;;;5.40;99.90;;;;;;5054878;27;89509;-32
2022/01/23 03:10:28;;;;;;;12.23;7.80;;;5.40;99.90;;;;;;5054841;27;89875;-31
2022/01/23 03:31:43;;;;;;;9.02;7.63;;;5.30;99.90;;;;;;5054887;27;89409;-29
2022/01/23 03:34:09;;;;;;;15.70;8.70;;;5.30;99.90;;;;;;5054433;27;87426;-30
2022/01/23 03:36:36;;;;;;;12.30;8.18;;;5.30;99.90;;;;;;5054663;27;90250;-31
2022/01/23 03:39:07;;;;;;;12.68;7.28;;;5.30;99.90;;;;;;5054240;27;89796;-35
2022/01/23 03:41:36;;;;;;;16.30;8.13;;;5.30;99.90;;;;;;5054229;27;89668;-32
2022/01/23 03:44:04;;;;;;;;;;;5.30;99.90;;;;;;5055431;27;87552;-30
2022/01/23 03:49:34;;;;;;;15.32;8.13;;;5.30;99.90;;;;;;5053511;27;91671;-31
2022/01/23 03:52:08;;;;;;;9.48;8.38;;;5.30;99.90;;;;;;5053769;27;90408;-29
2022/01/23 03:54:34;;;;;;;13.45;7.63;;;5.30;99.90;;;;;;5054846;27;88726;-31
2022/01/23 03:57:02;;;;;;;14.48;8.35;;;5.40;99.90;;;;;;5054263;27;88986;-32
2022/01/23 03:59:31;;;;;;;13.88;7.63;;;5.40;99.90;;;;;;5053823;27;89526;-32
2022/01/23 04:01:57;;;;;;;15.07;8.73;;;5.40;99.90;;;;;;5053693;27;89458;-34
2022/01/23 04:04:39;;;;;;;13.02;9.25;;;5.30;99.90;;;;;;5053802;27;87575;-30
2022/01/23 04:07:09;;;;;;;15.00;8.15;;;5.40;99.90;;;;;;5053870;27;89041;-32
2022/01/23 04:09:36;;;;;;;13.75;7.97;;;5.40;99.90;;;;;;5053961;27;88706;-32
2022/01/23 04:12:03;;;;;;;15.80;8.85;;;5.40;99.90;;;;;;5054067;27;89803;-31
2022/01/23 04:14:30;;;;;;;17.58;9.43;;;5.40;99.90;;;;;;5053628;27;88210;-32
2022/01/23 04:17:30;;;;;;;19.95;8.40;;;5.40;99.90;;;;;;5053628;27;88836;-31
2022/01/23 04:20:21;;;;;;;10.73;8.10;;;5.40;99.90;;;;;;5054377;27;90308;-31
2022/01/23 04:34:14;;;;;;;13.48;9.20;;;5.40;99.90;;;;;;5053608;27;89768;-31
2022/01/23 05:01:22;;;;;;;13.80;10.02;;;5.40;99.90;;;;;;5056571;27;90283;-30
2022/01/23 05:06:22;;;;;;;10.55;8.30;;;5.40;99.90;;;;;;5056440;27;89477;-32
2022/01/23 05:08:48;;;;;;;26.88;10.02;;;5.40;99.90;;;;;;5056353;27;88063;-29
2022/01/23 05:11:14;;;;;;;13.52;8.88;;;5.40;99.90;;;;;;5055672;27;90431;-32
2022/01/23 05:13:39;;;;;;;17.50;9.82;;;5.40;99.90;;;;;;5056671;27;89530;-31
2022/01/23 05:16:05;;;;;;;14.10;10.52;;;5.40;99.90;;;;;;5056300;27;89498;-31
2022/01/23 05:18:34;;;;;;;10.85;8.63;;;5.40;99.90;;;;;;5055739;27;88031;-28
2022/01/23 05:21:46;;;;;;;14.10;9.73;;;5.40;99.90;;;;;;5056524;27;90225;-32
2022/01/23 05:24:02;;;;;;;18.80;9.73;;;5.40;99.90;;;;;;5055405;27;90086;-30
2022/01/23 05:26:28;;;;;;;16.48;9.63;;;5.40;99.90;;;;;;5038539;27;90040;-31
2022/01/23 05:28:53;;;;;;;10.57;8.32;;;5.40;99.90;;;;;;5054478;27;87655;-32
2022/01/23 05:31:19;;;;;;;10.18;9.07;;;5.40;99.90;;;;;;5055971;27;90284;-31
2022/01/23 05:33:44;;;;;;;13.27;9.32;;;5.40;99.90;;;;;;5055342;27;89579;-33
2022/01/23 05:36:10;;;;;;;15.52;9.15;;;5.40;99.90;;;;;;5055859;27;90420;-29
2022/01/23 05:38:36;;;;;;;13.98;9.48;;;5.40;99.90;;;;;;5056569;27;88061;-33
2022/01/23 05:41:01;;;;;;;13.88;8.25;;;5.40;99.90;;;;;;5056223;27;90210;-30
2022/01/23 05:43:27;;;;;;;10.70;8.77;;;5.40;99.90;;;;;;5056075;27;89551;-30
2022/01/23 05:45:53;;;;;;;12.02;8.65;;;5.40;99.90;;;;;;5055999;27;88383;-32
2022/01/23 05:48:19;;;;;;;9.43;7.75;;;5.40;99.90;;;;;;5056013;27;87550;-29
2022/01/23 05:50:46;;;;;;;9.68;8.00;;;5.40;99.90;;;;;;5056536;27;90228;-32
2022/01/23 05:53:12;;;;;;;15.65;8.90;;;5.40;99.90;;;;;;5055024;27;91236;-31
2022/01/23 05:55:38;;;;;;;9.43;7.78;;;5.40;99.90;;;;;;5056049;27;89266;-31
2022/01/23 05:58:04;;;;;;;9.45;7.50;;;5.40;99.90;;;;;;5055521;27;89009;-31
2022/01/23 06:00:30;;;;;;;14.60;9.23;;;5.40;99.90;;;;;;5056052;27;89081;-31
2022/01/23 06:02:55;;;;;;;10.38;7.72;;;5.40;99.90;;;;;;5055955;27;89390;-31
2022/01/23 06:05:21;;;;;;;13.13;9.98;;;5.40;99.90;;;;;;5055328;27;90659;-31
2022/01/23 06:07:48;;;;;;;13.27;8.32;;;5.40;99.90;;;;;;5055213;27;87730;-30
2022/01/23 06:10:22;;;;;;;13.80;10.25;;;5.40;99.90;;;;;;5055968;27;88855;-30
2022/01/23 06:12:48;;;;;;;15.65;8.85;;;5.40;99.90;;;;;;5055103;27;89521;-31
2022/01/23 06:15:13;;;;;;;13.30;9.20;;;5.40;99.90;;;;;;5055357;27;89756;-30
2022/01/23 06:17:39;;;;;;;10.77;8.85;;;5.40;99.90;;;;;;5055926;27;88318;-30
2022/01/23 06:20:08;;;;;;;11.13;9.75;;;5.40;99.90;;;;;;5055756;27;90102;-33
2022/01/23 06:22:33;;;;;;;12.50;8.20;;;5.40;99.90;;;;;;5052823;27;91622;-29
2022/01/23 06:24:59;;;;;;;17.77;9.57;;;5.40;99.90;;;;;;5055022;27;90348;-30
2022/01/23 06:27:28;;;;;;;13.88;9.00;;;5.40;99.90;;;;;;5055559;27;87774;-31
2022/01/23 06:29:53;;;;;;;;;;;5.40;99.90;;;;;;5056221;27;90425;-30
2022/01/23 06:32:19;;;;;;;14.05;9.35;;;5.40;99.90;;;;;;5056561;27;89644;-33
2022/01/23 06:34:46;;;;;;;12.00;8.77;;;5.40;99.90;;;;;;5055266;27;89461;-32
2022/01/23 06:37:12;;;;;;;14.40;9.63;;;5.40;99.90;;;;;;5055439;27;87636;-33
2022/01/23 06:39:37;;;;;;;12.95;9.30;;;5.40;99.90;;;;;;5055217;27;90422;-30
2022/01/23 06:42:03;;;;;;;12.25;9.30;;;5.40;99.90;;;;;;5055154;27;89793;-34
2022/01/23 06:44:29;;;;;;;13.88;8.13;;;5.30;99.90;;;;;;5054751;27;91242;-29
2022/01/23 06:46:55;;;;;;;11.80;9.90;;;5.30;99.90;;;;;;5052861;27;88421;-33
2022/01/23 06:49:21;;;;;;;11.07;8.65;;;5.30;99.90;;;;;;5054392;27;90085;-30
2022/01/23 06:51:48;;;;;;;12.63;9.48;;;5.30;99.90;;;;;;5054775;27;89674;-32
2022/01/23 06:54:14;;;;;;;12.63;9.35;;;5.30;99.90;;;;;;5054495;27;88732;-30
2022/01/23 06:56:39;;;;;;;12.10;9.07;;;5.30;99.90;;;;;;5055291;27;87486;-32
2022/01/23 06:59:05;;;;;;;13.00;8.35;;;5.30;99.90;;;;;;5054655;27;90756;-32
2022/01/23 07:01:31;;;;;;;12.73;8.63;;;5.30;99.90;;;;;;5054542;27;89707;-31
2022/01/23 07:03:56;;;;;;;9.90;8.43;;;5.30;99.90;;;;;;5055208;27;89510;-30
2022/01/23 07:06:22;;;;;;;11.57;8.95;;;5.30;99.90;;;;;;5051859;27;89068;-30
2022/01/23 07:08:47;;;;;;;11.13;7.82;;;5.20;99.90;;;;;;5054530;27;89304;-30
2022/01/23 07:11:13;;;;;;;18.80;9.05;;;5.20;99.90;;;;;;5053748;27;96898;-32
2022/01/23 07:13:39;;;;;;;13.80;8.02;;;5.20;99.90;;;;;;5054599;27;89982;-29
2022/01/23 07:16:06;;;;;;;11.68;9.25;;;5.20;99.90;;;;;;5055058;27;88060;-31
2022/01/23 07:18:32;;;;;;;12.65;8.85;;;5.20;99.90;;;;;;5054248;27;90246;-30
2022/01/23 07:20:57;;;;;;;14.23;10.05;;;5.20;99.90;;;;;;5055055;27;89245;-32
2022/01/23 07:23:24;;;;;;;11.40;8.90;;;5.20;99.90;;;;;;5053154;27;89855;-31
2022/01/23 07:25:50;;;;;;;12.93;8.93;;;5.20;99.90;;;;;;5054724;27;87756;-32
2022/01/23 07:28:19;;;;;;;13.48;10.27;;;5.20;99.90;;;;;;5054174;27;90539;-30
2022/01/23 07:33:13;;;;;;;11.73;8.23;;;5.30;99.90;;;;;;5054368;27;89530;-32
2022/01/23 07:35:39;;;;;;;13.60;8.95;;;5.30;99.90;;;;;;5054088;27;88942;-31
2022/01/23 07:38:04;;;;;;;10.90;7.65;;;5.30;99.90;;;;;;5054020;27;90256;-31
2022/01/23 07:40:30;;;;;;;11.32;9.18;;;5.30;99.90;;;;;;5048260;27;89833;-31
2022/01/23 07:42:56;;;;;;;9.45;8.32;;;5.30;99.90;;;;;;5033613;27;90316;-32
2022/01/23 07:45:21;;;;;;;12.70;8.25;;;5.30;99.90;;;;;;5031929;28;88449;-31
2022/01/23 07:47:47;;;;;;;13.88;8.10;;;5.30;99.90;;;;;;5033431;28;89310;-30
2022/01/23 07:50:13;;;;;;;9.52;8.32;;;5.30;99.90;;;;;;5033534;28;89666;-33
2022/01/23 07:52:40;;;;;;;12.57;8.13;;;5.30;99.90;;;;;;5033476;28;89823;-30
2022/01/23 07:55:10;;;;;;;14.40;9.25;;;5.30;99.90;;;;;;5033849;28;87670;-30
2022/01/23 07:57:37;;;;;;;12.88;8.80;;;5.30;99.90;;;;;;5033796;28;90570;-30
2022/01/23 08:00:05;;;;;;;10.55;9.13;;;5.30;99.90;;;;;;5032024;28;90455;-31
2022/01/23 08:02:31;;;;;;;12.50;8.40;;;5.30;99.90;;;;;;5033328;28;91988;-30
2022/01/23 08:04:56;;;;;;;10.00;7.70;;;5.30;99.90;;;;;;5033847;28;88791;-32
2022/01/23 08:07:31;;;;;;;12.07;8.70;;;5.40;99.90;;;;;;5033271;28;90279;-31
2022/01/23 08:10:09;;;;;;;12.90;8.77;;;5.30;99.90;;;;;;5033263;28;89667;-30
2022/01/23 08:12:36;;;;;;;12.93;8.23;;;5.40;99.90;;;;;;5033031;28;89499;-30
2022/01/23 08:15:04;;;;;;;9.20;7.97;;;5.40;99.90;;;;;;4975776;28;87868;-33
2022/01/23 08:17:29;;;;;;;8.85;7.55;;;5.40;99.90;;;;;;5036090;27;90786;-31
2022/01/23 08:19:57;;;;;;;10.18;7.18;;;5.40;99.90;;;;;;5037299;28;88432;-32
2022/01/23 08:22:24;;;;;;;13.47;8.03;;;5.40;99.90;;;;;;5036839;28;89491;-30
2022/01/23 08:24:51;;;;;;;8.10;7.20;;;5.40;99.90;;;;;;5036599;28;88049;-30
2022/01/23 08:27:17;;;;;;;9.57;7.00;;;5.50;99.90;;;;;;5036352;28;90211;-32
2022/01/23 08:29:43;;;;;;;10.48;8.25;;;5.50;99.90;;;;;;5035253;28;89655;-32
2022/01/23 08:32:10;;;;;;;9.45;7.38;;;5.50;99.90;;;;;;5036842;28;89734;-34
2022/01/23 08:34:36;;;;;;;9.60;7.40;;;5.50;99.90;;;;;;5036962;28;88495;-31
2022/01/23 08:37:03;;;;;;;8.13;7.38;;;5.60;99.90;;;;;;5036636;28;89349;-31
2022/01/23 08:39:31;;;;;;;9.60;7.43;;;5.60;99.90;;;;;;5036064;28;88541;-34
2022/01/23 08:41:57;;;;;;;8.02;6.82;;;5.60;99.90;;;;;;5036113;28;89183;-31
2022/01/23 08:44:25;;;;;;;8.65;6.85;;;5.60;99.90;;;;;;5035996;28;87623;-29
2022/01/23 08:46:51;;;;;;;9.00;7.07;;;5.70;99.90;;;;;;5036123;28;90277;-30
2022/01/23 08:49:18;;;;;;;8.93;6.13;;;5.70;99.90;;;;;;5036527;28;90738;-32
2022/01/23 08:51:45;;;;;;;8.68;6.18;;;5.70;99.90;;;;;;5057700;27;90332;-31
2022/01/23 08:54:11;;;;;;;9.77;6.63;;;5.70;99.90;;;;;;5056899;27;87477;-30
2022/01/23 08:56:36;;;;;;;10.43;6.90;;;5.70;99.90;;;;;;5056076;27;90423;-32
2022/01/23 08:59:03;;;;;;;11.48;5.95;;;5.70;99.90;;;;;;5057089;27;88379;-30
2022/01/23 09:01:29;;;;;;;9.45;5.72;;;5.80;99.90;;;;;;5056893;27;89574;-33
2022/01/23 09:03:54;;;;;;;10.35;7.70;;;5.80;99.90;;;;;;5056516;27;88274;-30
2022/01/23 09:06:20;;;;;;;7.40;6.57;;;5.80;99.90;;;;;;5055795;27;90416;-32
2022/01/23 09:08:46;;;;;;;11.23;7.82;;;5.80;99.90;;;;;;5059249;27;89868;-31
2022/01/23 09:11:27;;;;;;;11.98;7.32;;;5.80;99.90;;;;;;5056578;27;89374;-30
2022/01/23 09:16:19;;;;;;;8.00;7.30;;;5.90;99.90;;;;;;5046579;27;90326;-32
2022/01/23 09:18:45;;;;;;;10.63;6.38;;;5.90;99.90;;;;;;5045535;27;89967;-31
2022/01/23 09:21:11;;;;;;;6.38;5.75;;;6.00;99.90;;;;;;5044811;27;89938;-33
2022/01/23 09:23:37;;;;;;;7.57;6.68;;;6.00;99.90;;;;;;5043426;27;88149;-32
2022/01/23 09:26:10;;;;;;;10.25;6.63;;;6.10;99.90;;;;;;5047882;27;91453;-31
2022/01/23 09:28:39;;;;;;;8.20;6.57;;;6.10;99.90;;;;;;5060935;27;88667;-31
2022/01/23 09:31:04;;;;;;;9.40;5.95;;;6.10;99.90;;;;;;5063315;27;90512;-33
2022/01/23 09:33:31;;;;;;;8.43;6.43;;;6.20;99.90;;;;;;5042237;27;88427;-31
2022/01/23 09:35:56;;;;;;;8.82;5.97;;;6.20;99.90;;;;;;5041153;27;90654;-31
2022/01/23 09:38:22;;;;;;;6.57;5.63;;;6.30;99.90;;;;;;5039411;27;90477;-31
2022/01/23 09:40:54;;;;;;;10.93;6.10;;;6.30;99.90;;;;;;5042027;27;89686;-32
2022/01/23 09:43:22;;;;;;;8.95;6.18;;;6.40;99.90;;;;;;5042169;27;87973;-32
2022/01/23 09:45:50;;;;;;;11.25;6.20;;;6.40;99.90;;;;;;5041778;27;91142;-32
2022/01/23 09:48:21;;;;;;;6.85;5.57;;;6.40;99.90;;;;;;5041627;27;89543;-32
2022/01/23 09:50:48;;;;;;;8.05;5.13;;;6.50;99.90;;;;;;5041957;27;89589;-31
2022/01/23 09:53:14;;;;;;;8.15;5.25;;;6.50;99.90;;;;;;5042408;27;88052;-31
2022/01/23 09:55:44;;;;;;;7.47;4.75;;;6.50;99.90;;;;;;5041213;27;90295;-33
2022/01/23 09:58:10;;;;;;;9.75;8.98;;;6.60;99.90;;;;;;5044170;27;88710;-32
2022/01/23 10:00:36;;;;;;;6.65;5.40;;;6.70;99.90;;;;;;5023742;27;89484;-31
2022/01/23 10:03:02;;;;;;;6.20;4.93;;;6.80;99.90;;;;;;5054977;27;88530;-33
2022/01/23 10:05:29;;;;;;;6.57;5.95;;;6.80;99.90;;;;;;5057147;27;90639;-32
2022/01/23 10:07:55;;;;;;;9.43;8.15;;;6.90;99.90;;;;;;5052218;27;89681;-34
2022/01/23 10:10:26;;;;;;;7.75;4.95;;;7.00;99.90;;;;;;5055453;27;89538;-31
2022/01/23 10:13:01;;;;;;;7.60;6.18;;;7.20;99.90;;;;;;5060959;27;88000;-33
2022/01/23 10:15:31;;;;;;;7.45;5.15;;;7.20;99.90;;;;;;5066665;27;90319;-33
2022/01/23 10:17:58;;;;;;;8.20;7.57;;;7.20;99.90;;;;;;5067539;27;89794;-34
2022/01/23 10:20:24;;;;;;;7.07;4.65;;;7.30;99.90;;;;;;5058185;27;89936;-32
2022/01/23 10:22:51;;;;;;;5.32;4.82;;;7.40;99.90;;;;;;5055069;27;88150;-31
2022/01/23 10:25:20;;;;;;;4.87;4.43;;;7.40;99.90;;;;;;5027479;27;90173;-32
2022/01/23 10:28:02;;;;;;;6.95;3.95;;;7.50;99.90;;;;;;5052044;27;91725;-33
2022/01/23 10:30:33;;;;;;;3.72;3.40;;;7.50;99.90;;;;;;5051339;27;90624;-31
2022/01/23 10:33:03;;;;;;;5.65;3.92;;;7.50;99.90;;;;;;5056437;27;88371;-33
2022/01/23 10:35:29;;;;;;;4.45;3.50;;;7.50;99.90;;;;;;5039994;27;90524;-34
2022/01/23 10:37:55;;;;;;;4.18;3.78;;;7.50;99.90;;;;;;5056770;27;88932;-32
2022/01/23 10:40:21;;;;;;;4.68;4.22;;;7.50;99.90;;;;;;5050969;27;89741;-33
2022/01/23 10:43:07;;;;;;;4.45;3.65;;;7.50;99.90;;;;;;5052053;27;88368;-31
2022/01/23 10:48:46;;;;;;;3.40;3.20;;;7.50;99.90;;;;;;5072123;27;89944;-33
2022/01/23 10:51:26;;;;;;;6.32;4.65;;;7.50;99.90;;;;;;5073062;27;89234;-32
2022/01/23 10:54:05;;;;;;;5.35;3.97;;;7.50;99.90;;;;;;5071683;27;88150;-33
2022/01/23 10:56:34;;;;;;;7.82;4.88;;;7.50;99.90;;;;;;5031853;28;90436;-32
2022/01/23 10:59:06;;;;;;;4.22;3.83;;;7.60;99.90;;;;;;5030419;28;89742;-31
2022/01/23 11:01:33;;;;;;;4.97;3.92;;;7.60;99.90;;;;;;5031426;28;89418;-30
2022/01/23 11:04:04;;;;;;;6.97;4.35;;;7.60;99.90;;;;;;5031654;28;89196;-32
2022/01/23 11:06:30;;;;;;;4.72;3.85;;;7.60;99.90;;;;;;5030856;28;88638;-34
2022/01/23 11:09:09;;;;;;;4.68;4.10;;;7.60;99.90;;;;;;5031595;28;89264;-32
2022/01/23 11:11:47;;;;;;;4.03;3.45;;;7.60;99.90;;;;;;5030967;28;90033;-34
2022/01/23 11:19:44;;;;;;;5.93;4.72;;;7.70;99.90;;;;;;5050243;27;90171;-31
2022/01/23 11:22:22;;;;;;;7.25;5.38;;;7.70;99.90;;;;;;5051010;27;90497;-32
2022/01/23 11:24:49;;;;;;;5.15;4.25;;;7.70;99.90;;;;;;5048244;27;88316;-32
2022/01/23 11:27:17;;;;;;;5.50;4.97;;;7.70;99.90;;;;;;5050345;27;90141;-33
2022/01/23 11:29:58;;;;;;;4.60;4.20;;;7.70;99.90;;;;;;5050804;27;88807;-34
2022/01/23 11:32:27;;;;;;;4.50;3.72;;;7.70;99.90;;;;;;5051277;27;89615;-33
2022/01/23 11:35:00;;;;;;;4.70;3.45;;;7.70;99.90;;;;;;5051543;27;88168;-31
2022/01/23 11:37:26;;;;;;;4.63;3.45;;;7.70;99.90;;;;;;5051519;27;90161;-33
2022/01/23 11:39:57;;;;;;;4.22;3.60;;;7.70;99.90;;;;;;5051428;27;88701;-33
2022/01/23 11:56:32;;;;;;;4.47;3.72;;;7.70;99.90;;;;;;5031126;28;87577;-31
2022/01/23 11:59:10;;;;;;;3.28;2.83;;;7.60;99.90;;;;;;4933816;27;99809;-32
2022/01/23 12:01:39;;;;;;;4.55;3.85;;;7.60;99.90;;;;;;5031846;27;90087;-33
2022/01/23 12:04:07;;;;;;;4.93;3.38;;;7.60;99.90;;;;;;5050153;27;89616;-32
2022/01/23 12:06:38;;;;;;;3.15;2.78;;;7.60;99.90;;;;;;5051261;27;89156;-34
2022/01/23 12:09:10;;;;;;;5.30;3.65;;;7.60;99.90;;;;;;5051271;27;90400;-33
2022/01/23 12:11:41;;;;;;;5.13;2.90;;;7.60;99.90;;;;;;5050303;27;90501;-32
2022/01/23 12:16:52;;;;;;;3.40;2.77;;;7.50;99.90;;;;;;5046705;27;88048;-31
2022/01/23 12:19:20;;;;;;;2.67;2.22;;;7.50;99.90;;;;;;5041780;27;90794;-34
2022/01/23 12:21:47;;;;;;;5.28;2.40;;;7.40;99.90;;;;;;5042112;27;88652;-36
2022/01/23 12:24:15;;;;;;;2.60;2.40;;;7.30;99.90;;;;;;5043259;27;89346;-37
2022/01/23 12:26:42;;;;;;;3.17;2.88;;;7.30;99.90;;;;;;5047866;27;88113;-29
2022/01/23 12:29:22;;;;;;;3.10;2.70;;;7.30;99.90;;;;;;5049740;27;90618;-33
2022/01/23 12:31:48;;;;;;;2.90;2.60;;;7.30;99.90;;;;;;5050800;27;89845;-34
2022/01/23 12:34:14;;;;;;;2.67;2.47;;;7.30;99.90;;;;;;5050258;27;89302;-35
2022/01/23 12:36:43;;;;;;;2.35;1.95;;;7.30;99.90;;;;;;5049926;27;88806;-31
2022/01/23 12:39:08;;;;;;;4.30;3.55;;;7.20;99.90;;;;;;5050599;27;90690;-30
2022/01/23 12:41:35;;;;;;;3.58;3.25;;;7.20;99.90;;;;;;5050530;27;89442;-32
2022/01/23 12:44:06;;;;;;;3.63;3.33;;;7.20;99.90;;;;;;5049257;27;88657;-33
2022/01/23 12:46:39;;;;;;;3.58;2.70;;;7.10;99.90;;;;;;5048256;27;88285;-29
2022/01/23 12:49:23;;;;;;;4.60;3.63;;;7.20;99.90;;;;;;5050408;27;90149;-32
2022/01/23 12:52:13;;;;;;;2.85;2.58;;;7.10;99.90;;;;;;5050687;27;89923;-32
2022/01/23 12:54:48;;;;;;;5.15;2.60;;;7.20;99.90;;;;;;5037828;27;89407;-34
2022/01/23 12:57:19;;;;;;;3.05;2.75;;;7.10;99.90;;;;;;4819997;27;10001375;-36
2022/01/23 12:59:56;;;;;;;2.07;1.87;;;7.10;99.90;;;;;;4503942;28;10000426;-32
2022/01/23 13:02:25;;;;;;;2.10;1.60;;;7.10;99.90;;;;;;5029479;27;88454;-35
2022/01/23 13:04:53;;;;;;;1.95;1.60;;;7.10;99.90;;;;;;5033153;28;90334;-34
2022/01/23 13:07:40;;;;;;;5.50;1.98;;;7.10;99.90;;;;;;5033663;28;89421;-33
2022/01/23 13:12:51;;;;;;;2.40;1.80;;;7.10;99.90;;;;;;5033233;28;88338;-36
2022/01/23 13:31:43;;;;;;;2.05;1.67;;;7.10;99.90;;;;;;5033263;28;90467;-35
2022/01/23 13:34:24;;;;;;;1.65;1.55;;;7.10;99.90;;;;;;5032710;28;88468;-31
2022/01/23 13:37:10;;;;;;;2.00;1.63;;;7.10;99.90;;;;;;5030675;28;89294;-30
2022/01/23 13:40:05;;;;;;;1.52;1.42;;;7.10;99.90;;;;;;5031394;28;89279;-31
2022/01/23 13:53:34;;;;;;;3.00;1.75;;;7.00;99.90;;;;;;5031536;28;89297;-32
2022/01/23 13:58:53;;;;;;;1.83;1.70;;;7.00;99.90;;;;;;5033004;28;89998;-32
2022/01/23 14:01:35;;;;;;;4.47;2.05;;;7.00;99.90;;;;;;5033113;28;88251;-38
2022/01/23 14:04:02;;;;;;;4.32;2.28;;;7.00;99.90;;;;;;5033407;28;89501;-30
2022/01/23 14:06:28;;;;;;;2.45;2.25;;;7.00;99.90;;;;;;5033383;28;87643;-30
2022/01/23 14:09:21;;;;;;;2.47;1.85;;;7.00;99.90;;;;;;5033037;28;89408;-34
2022/01/23 14:11:47;;;;;;;2.00;1.80;;;7.00;99.90;;;;;;5028596;28;88635;-33
2022/01/23 14:14:20;;;;;;;2.50;2.30;;;7.00;99.90;;;;;;5032787;27;88432;-33
2022/01/23 14:16:47;;;;;;;2.28;1.80;;;7.00;99.90;;;;;;5033304;28;88569;-33
2022/01/23 14:19:13;;;;;;;1.90;1.80;;;7.00;99.90;;;;;;5033091;28;89193;-31
2022/01/23 14:21:43;;;;;;;1.80;1.70;;;7.00;99.90;;;;;;5031995;28;90631;-31
2022/01/23 14:24:09;;;;;;;1.95;1.80;;;7.00;99.90;;;;;;5033074;28;90446;-30
2022/01/23 14:26:35;;;;;;;2.58;2.38;;;7.00;99.90;;;;;;5032964;28;87721;-33
2022/01/23 14:29:06;;;;;;;4.07;2.15;;;7.00;99.90;;;;;;5014219;28;91064;-32
2022/01/23 14:31:37;;;;;;;2.25;2.05;;;7.00;99.90;;;;;;5032588;28;89626;-31
2022/01/23 14:34:16;;;;;;;2.22;2.03;;;7.00;99.90;;;;;;5032665;28;89679;-29
2022/01/23 14:36:41;;;;;;;2.60;2.40;;;7.00;99.90;;;;;;5032962;28;88015;-33
2022/01/23 14:39:10;;;;;;;2.33;2.13;;;7.00;99.90;;;;;;5032497;28;90361;-32
2022/01/23 14:41:39;;;;;;;2.50;2.30;;;7.00;99.90;;;;;;5032432;28;89468;-32
2022/01/23 14:44:20;;;;;;;3.65;3.03;;;6.90;99.90;;;;;;5032805;28;89674;-31
2022/01/23 14:46:47;;;;;;;3.83;2.53;;;6.90;99.90;;;;;;5032232;28;88873;-32
2022/01/23 14:49:21;;;;;;;2.42;2.22;;;6.90;99.90;;;;;;5031185;28;89388;-32
2022/01/23 14:51:47;;;;;;;2.40;2.20;;;6.90;99.90;;;;;;5013993;28;89699;-32
2022/01/23 14:54:12;;;;;;;2.92;2.30;;;6.90;99.90;;;;;;5031962;28;89471;-29
2022/01/23 14:56:39;;;;;;;5.03;2.65;;;6.80;99.90;;;;;;5032067;28;89419;-33
2022/01/23 14:59:15;;;;;;;3.10;2.90;;;6.90;99.90;;;;;;5031748;28;90213;-32
2022/01/23 15:01:43;;;;;;;2.55;2.35;;;6.80;99.90;;;;;;5031372;28;89769;-31
2022/01/23 15:04:11;;;;;;;2.55;2.35;;;6.80;99.90;;;;;;5031799;28;89631;-33
2022/01/23 15:06:42;;;;;;;2.83;2.63;;;6.80;99.90;;;;;;5032130;28;88273;-31
2022/01/23 15:09:10;;;;;;;3.03;2.63;;;6.80;99.90;;;;;;5032044;28;90303;-31
2022/01/23 15:11:37;;;;;;;;;;;6.80;99.90;;;;;;5031789;28;90715;-31
2022/01/23 15:14:03;;;;;;;3.50;2.83;;;6.80;99.90;;;;;;5033237;28;89587;-32
2022/01/23 15:16:29;;;;;;;3.17;2.47;;;6.80;99.90;;;;;;5031141;28;88386;-31
2022/01/23 15:18:54;;;;;;;3.75;2.67;;;6.80;99.90;;;;;;5031407;28;90788;-34
2022/01/23 15:21:20;;;;;;;2.90;2.53;;;6.70;99.90;;;;;;5031256;28;89845;-31
2022/01/23 15:23:46;;;;;;;3.38;2.88;;;6.70;99.90;;;;;;5031579;28;89591;-33
2022/01/23 15:26:12;;;;;;;3.35;2.75;;;6.70;99.90;;;;;;5031038;28;88543;-31
2022/01/23 15:28:38;;;;;;;3.15;2.60;;;6.70;99.90;;;;;;5030902;28;90164;-32
2022/01/23 15:31:03;;;;;;;2.97;2.15;;;6.70;99.90;;;;;;5031967;28;89765;-33
2022/01/23 15:33:29;;;;;;;1.85;1.58;;;6.70;99.90;;;;;;5031152;28;89335;-32
2022/01/23 15:35:55;;;;;;;3.53;3.25;;;6.70;99.90;;;;;;5031084;28;88934;-32
2022/01/23 15:38:21;;;;;;;11.48;9.48;;;6.70;99.90;;;;;;5031104;28;90463;-29
2022/01/23 15:40:48;;;;;;;7.32;6.53;;;6.70;99.90;;;;;;5030923;28;89671;-32
2022/01/23 15:43:14;;;;;;;2.67;2.47;;;6.60;99.90;;;;;;5031318;28;89525;-33
2022/01/23 15:45:42;;;;;;;3.45;3.15;;;6.70;99.90;;;;;;4997317;27;88605;-33
2022/01/23 15:48:08;;;;;;;5.93;3.30;;;6.60;99.90;;;;;;5036646;27;90854;-30
2022/01/23 15:50:34;;;;;;;2.80;2.40;;;6.60;99.90;;;;;;5030907;28;89649;-33
2022/01/23 15:52:59;;;;;;;4.75;2.40;;;6.60;99.90;;;;;;5031198;28;89566;-31
2022/01/23 15:55:28;;;;;;;2.47;2.28;;;6.60;99.90;;;;;;5030523;28;87623;-31
2022/01/23 15:57:54;;;;;;;2.55;2.08;;;6.50;99.90;;;;;;5035797;27;90183;-34
2022/01/23 16:00:21;;;;;;;2.75;2.55;;;6.50;99.90;;;;;;5049635;27;90729;-32
2022/01/23 16:02:47;;;;;;;1.98;1.88;;;6.50;99.90;;;;;;5051603;27;89545;-31
2022/01/23 16:05:14;;;;;;;3.13;2.83;;;6.50;99.90;;;;;;5051221;27;88099;-32
2022/01/23 16:07:39;;;;;;;2.75;2.03;;;6.50;99.90;;;;;;5051465;27;90389;-35
2022/01/23 16:10:05;;;;;;;1.98;1.63;;;6.40;99.90;;;;;;5051431;27;89964;-31
2022/01/23 16:12:31;;;;;;;2.10;2.00;;;6.40;99.90;;;;;;5050930;27;89317;-33